createdAt,value
2023-01-03T00:00:34.785Z,19.2
2023-01-03T00:05:36.858Z,19
2023-01-03T00:10:36.621Z,19.1
2023-01-03T00:15:36.830Z,19.2
2023-01-03T00:20:36.869Z,19.1
2023-01-03T00:25:37.112Z,19.1
2023-01-03T00:30:37.415Z,19.2
2023-01-03T00:35:37.756Z,19.1
2023-01-03T00:40:37.777Z,19.1
2023-01-03T00:45:37.874Z,19.1
2023-01-03T00:50:38.221Z,19.1
2023-01-03T00:55:38.555Z,19.1
2023-01-03T01:00:39.008Z,19
2023-01-03T01:05:39.494Z,19
2023-01-03T01:10:41.563Z,19
2023-01-03T01:15:41.658Z,19
2023-01-03T01:20:41.810Z,19
2023-01-03T01:25:42.284Z,19
2023-01-03T01:30:42.395Z,19
2023-01-03T01:35:42.893Z,18.9
2023-01-03T01:40:43.011Z,18.8
2023-01-03T01:45:43.263Z,18.8
2023-01-03T01:50:43.636Z,18.9
2023-01-03T01:55:43.973Z,18.9
2023-01-03T02:00:44.363Z,18.8
2023-01-03T02:05:44.537Z,18.9
2023-01-03T02:10:44.810Z,18.9
2023-01-03T02:15:45.203Z,18.9
2023-01-03T02:20:45.183Z,18.8
2023-01-03T02:25:45.267Z,18.8
2023-01-03T02:30:45.543Z,18.8
2023-01-03T02:35:45.561Z,18.8
2023-01-03T02:40:45.815Z,18.8
2023-01-03T02:45:45.663Z,18.8
2023-01-03T02:50:45.771Z,18.8
2023-01-03T02:55:45.953Z,18.8
2023-01-03T03:00:45.983Z,18.8
2023-01-03T03:05:46.425Z,18.6
2023-01-03T03:10:46.592Z,18.7
2023-01-03T03:15:46.729Z,18.8
2023-01-03T03:20:47.110Z,18.7
2023-01-03T03:25:47.425Z,18.7
2023-01-03T03:30:47.814Z,18.7
2023-01-03T03:35:47.999Z,18.7
2023-01-03T03:40:48.349Z,18.7
2023-01-03T03:45:51.367Z,18.7
2023-01-03T03:50:51.150Z,18.7
2023-01-03T03:55:51.077Z,18.7
2023-01-03T04:00:51.013Z,18.6
2023-01-03T04:05:51.242Z,18.7
2023-01-03T04:10:51.595Z,18.6
2023-01-03T04:15:51.727Z,18.6
2023-01-03T04:20:52.075Z,18.6
2023-01-03T04:25:52.524Z,18.5
2023-01-03T04:30:52.784Z,18.6
2023-01-03T04:35:53.296Z,18.6
2023-01-03T04:40:53.416Z,18.5
2023-01-03T04:45:53.645Z,18.5
2023-01-03T04:50:53.659Z,18.6
2023-01-03T04:55:53.891Z,18.6
2023-01-03T05:00:54.158Z,18.6
2023-01-03T05:05:54.362Z,18.5
2023-01-03T05:10:56.392Z,18.5
2023-01-03T05:15:56.151Z,18.5
2023-01-03T05:20:56.317Z,18.5
2023-01-03T05:25:56.666Z,18.5
2023-01-03T05:30:57.003Z,18.4
2023-01-03T05:35:57.375Z,18.4
2023-01-03T05:40:57.335Z,18.4
2023-01-03T05:45:57.798Z,18.4
2023-01-03T05:50:58.151Z,18.4
2023-01-03T05:55:58.364Z,18.3
2023-01-03T06:00:58.814Z,18.4
2023-01-03T06:06:01.847Z,18.4
2023-01-03T06:11:04.265Z,18.4
2023-01-03T06:16:06.460Z,18.4
2023-01-03T06:21:06.116Z,18.5
2023-01-03T06:26:08.955Z,18.6
2023-01-03T06:31:08.535Z,18.8
2023-01-03T06:36:08.929Z,18.8
2023-01-03T06:41:09.153Z,18.8
2023-01-03T06:46:09.308Z,18.9
2023-01-03T06:51:09.492Z,18.8
2023-01-03T06:56:09.689Z,18.9
2023-01-03T07:01:09.831Z,18.9
2023-01-03T07:06:09.828Z,18.9
2023-01-03T07:11:09.931Z,19
2023-01-03T07:16:10.392Z,19.1
2023-01-03T07:21:10.429Z,19.2
2023-01-03T07:26:10.669Z,19.3
2023-01-03T07:31:14.024Z,19.5
2023-01-03T07:36:13.579Z,19.6
2023-01-03T07:41:13.734Z,19.5
2023-01-03T07:46:14.194Z,19.6
2023-01-03T07:51:14.337Z,19.8
2023-01-03T07:56:14.713Z,19.8
2023-01-03T08:01:15.138Z,20
2023-01-03T08:06:16.172Z,19.6
2023-01-03T08:11:18.985Z,19.7
2023-01-03T08:16:18.632Z,19.7
2023-01-03T08:21:21.556Z,19.7
2023-01-03T08:26:21.445Z,19.7
2023-01-03T08:31:21.663Z,19.6
2023-01-03T08:36:21.408Z,19.6
2023-01-03T08:41:21.676Z,19.6
2023-01-03T08:46:21.988Z,19.5
2023-01-03T08:51:22.067Z,19.6
2023-01-03T08:56:22.193Z,19.4
2023-01-03T09:01:22.439Z,19.5
2023-01-03T09:06:22.862Z,19.5
2023-01-03T09:11:23.039Z,19.5
2023-01-03T09:16:23.496Z,19.5
2023-01-03T09:21:23.641Z,19.5
2023-01-03T09:26:23.602Z,19.5
2023-01-03T09:31:24.020Z,19.6
2023-01-03T09:36:24.165Z,19.7
2023-01-03T09:41:24.477Z,19.7
2023-01-03T09:46:24.980Z,19.8
2023-01-03T09:51:29.651Z,19.8
2023-01-03T09:56:25.527Z,19.8
2023-01-03T10:01:25.944Z,19.8
2023-01-03T10:06:25.856Z,19.7
2023-01-03T10:11:25.849Z,19.7
2023-01-03T10:16:26.956Z,19.8
2023-01-03T10:21:31.339Z,19.8
2023-01-03T10:26:33.080Z,19.7
2023-01-03T10:31:34.272Z,19.7
2023-01-03T10:36:34.080Z,19.6
2023-01-03T10:41:34.216Z,19.6
2023-01-03T10:46:34.479Z,19.5
2023-01-03T10:51:40.243Z,19.6
2023-01-03T10:56:35.206Z,19.4
2023-01-03T11:01:38.073Z,19.8
2023-01-03T11:06:38.233Z,20.3
2023-01-03T11:11:38.978Z,20.6
2023-01-03T11:16:42.230Z,20.8
2023-01-03T11:21:42.159Z,21
2023-01-03T11:26:42.700Z,21.1
2023-01-03T11:31:41.716Z,21.4
2023-01-03T11:36:42.060Z,21.4
2023-01-03T11:41:42.467Z,21.5
2023-01-03T11:46:42.755Z,21.6
2023-01-03T11:51:43.201Z,21.8
2023-01-03T11:56:43.365Z,21.8
2023-01-03T12:01:43.872Z,21.9
2023-01-03T12:06:43.896Z,22
2023-01-03T12:11:44.192Z,22.1
2023-01-03T12:16:44.259Z,22.4
2023-01-03T12:21:44.620Z,22.4
2023-01-03T12:26:44.835Z,22.7
2023-01-03T12:31:45.135Z,22.8
2023-01-03T12:36:45.503Z,23
2023-01-03T12:41:45.680Z,22.9
2023-01-03T12:46:46.036Z,22.9
2023-01-03T12:51:46.451Z,23.1
2023-01-03T12:56:46.683Z,23.2
2023-01-03T13:01:47.017Z,23.1
2023-01-03T13:06:47.419Z,23
2023-01-03T13:11:47.357Z,23.2
2023-01-03T13:16:49.566Z,23.1
2023-01-03T13:21:52.204Z,23.3
2023-01-03T13:26:51.877Z,23.3
2023-01-03T13:31:52.068Z,23.4
2023-01-03T13:36:52.213Z,23.4
2023-01-03T13:41:52.662Z,23.4
2023-01-03T13:46:53.019Z,23.3
2023-01-03T13:51:53.261Z,23.5
2023-01-03T13:56:53.589Z,23.5
2023-01-03T14:01:54.230Z,23.5
2023-01-03T14:06:54.271Z,23.4
2023-01-03T14:11:54.456Z,23.5
2023-01-03T14:16:54.817Z,23.4
2023-01-03T14:21:55.095Z,23.4
2023-01-03T14:26:55.263Z,23.4
2023-01-03T14:31:55.576Z,23.5
2023-01-03T14:36:55.733Z,23.5
2023-01-03T14:41:56.001Z,23.4
2023-01-03T14:46:56.357Z,23.4
2023-01-03T14:51:59.079Z,23.5
2023-01-03T14:56:58.820Z,23.4
2023-01-03T15:01:59.142Z,23.5
2023-01-03T15:07:03.633Z,23.4
2023-01-03T15:11:59.569Z,23.4
2023-01-03T15:16:59.726Z,23.4
2023-01-03T15:21:59.812Z,23.5
2023-01-03T15:26:59.884Z,23.4
2023-01-03T15:32:00.123Z,23.4
2023-01-03T15:37:00.215Z,23.4
2023-01-03T15:42:19.912Z,23.5
2023-01-03T15:47:00.482Z,23.4
2023-01-03T15:52:00.628Z,23.4
2023-01-03T15:57:00.937Z,23.5
2023-01-03T16:02:01.238Z,23.3
2023-01-03T16:07:01.331Z,23.4
2023-01-03T16:12:01.475Z,23.6
2023-01-03T16:17:01.653Z,23.4
2023-01-03T16:22:33.130Z,23.4
2023-01-03T16:27:02.353Z,23.3
2023-01-03T16:32:02.746Z,23.5
2023-01-03T16:37:05.643Z,23.4
2023-01-03T16:42:05.051Z,23.4
2023-01-03T16:47:07.879Z,23.5
2023-01-03T16:52:07.578Z,23.4
2023-01-03T16:57:07.828Z,23.5
2023-01-03T17:02:08.221Z,23.5
2023-01-03T17:07:07.901Z,23.5
2023-01-03T17:12:08.192Z,23.3
2023-01-03T17:17:08.199Z,23.4
2023-01-03T17:22:08.345Z,23.4
2023-01-03T17:27:08.641Z,23.5
2023-01-03T17:32:08.888Z,23.5
2023-01-03T17:37:09.128Z,23.5
2023-01-03T17:42:09.423Z,23.5
2023-01-03T17:47:09.453Z,23.5
2023-01-03T17:52:09.722Z,23.6
2023-01-03T17:57:09.837Z,23.5
2023-01-03T18:02:13.076Z,23.1
2023-01-03T18:07:12.543Z,22.6
2023-01-03T18:12:12.557Z,22.1
2023-01-03T18:17:12.341Z,21.7
2023-01-03T18:22:12.452Z,21.5
2023-01-03T18:27:12.546Z,21
2023-01-03T18:32:12.585Z,21
2023-01-03T18:37:15.494Z,21
2023-01-03T18:42:15.185Z,20.8
2023-01-03T18:47:15.246Z,20.7
2023-01-03T18:52:18.325Z,20.6
2023-01-03T18:57:20.719Z,20.5
2023-01-03T19:02:21.201Z,20.4
2023-01-03T19:07:23.718Z,20.4
2023-01-03T19:12:26.159Z,20.3
2023-01-03T19:17:28.554Z,20.2
2023-01-03T19:22:27.930Z,20.2
2023-01-03T19:27:30.930Z,20.2
2023-01-03T19:32:33.389Z,20.3
2023-01-03T19:37:32.889Z,20.2
2023-01-03T19:42:32.890Z,20.2
2023-01-03T19:47:34.784Z,20.1
2023-01-03T19:52:37.412Z,20.1
2023-01-03T19:57:37.216Z,20.1
2023-01-03T20:02:40.293Z,20
2023-01-03T20:07:39.586Z,20
2023-01-03T20:12:39.671Z,20
2023-01-03T20:17:39.558Z,20
2023-01-03T20:23:06.577Z,20
2023-01-03T20:27:44.441Z,19.9
2023-01-03T20:32:40.446Z,20
2023-01-03T20:37:43.207Z,20
2023-01-03T20:42:45.720Z,19.9
2023-01-03T20:47:45.409Z,19.9
2023-01-03T20:52:48.258Z,19.8
2023-01-03T20:57:47.823Z,19.9
2023-01-03T21:02:48.114Z,19.8
2023-01-03T21:07:48.361Z,19.9
2023-01-03T21:12:48.535Z,19.8
2023-01-03T21:17:50.948Z,19.8
2023-01-03T21:22:51.997Z,19.8
2023-01-03T21:27:51.624Z,19.8
2023-01-03T21:32:51.500Z,19.7
2023-01-03T21:37:51.799Z,19.8
2023-01-03T21:42:51.921Z,19.8
2023-01-03T21:47:54.605Z,19.7
2023-01-03T21:52:54.188Z,19.8
2023-01-03T21:57:54.357Z,19.8
2023-01-03T22:02:59.545Z,19.7
2023-01-03T22:07:54.551Z,19.6
2023-01-03T22:12:54.705Z,19.7
2023-01-03T22:17:55.004Z,19.7
2023-01-03T22:22:55.076Z,19.7
2023-01-03T22:27:58.076Z,19.6
2023-01-03T22:33:00.447Z,19.6
2023-01-03T22:38:00.257Z,19.7
2023-01-03T22:43:00.535Z,19.6
2023-01-03T22:48:00.739Z,19.6
2023-01-03T22:53:01.223Z,19.6
2023-01-03T22:58:03.756Z,19.6
2023-01-03T23:03:03.638Z,19.5
2023-01-03T23:08:03.774Z,19.6
2023-01-03T23:13:04.065Z,19.6
2023-01-03T23:18:04.342Z,19.4
2023-01-03T23:23:04.325Z,19.5
2023-01-03T23:28:04.682Z,19.6
2023-01-03T23:33:04.882Z,19.6
2023-01-03T23:38:05.105Z,19.6
2023-01-03T23:43:08.042Z,19.6
2023-01-03T23:48:07.925Z,19.6
2023-01-03T23:53:08.170Z,19.6
2023-01-03T23:58:07.996Z,19.6
